KHPN/HPN METAR and TAF weather

Enter ICAO airport designator
Station Type Date Time Source
KHPN METAR 2022/06/25 21:56 UTC NOAA

KHPN 252156Z VRB03KT 10SM FEW060 31/16 A3009 RMK AO2 SLP181 T03060156


Station Type Date Time Source
KHPN Decoded METAR 2022/06/25 21:56 UTC NOAA

WHITE PLAINS WESTCHESTER, NY, United States (KHPN) 41-04N 073-42W 121M
Jun 25, 2022 - 05:56 PM EDT / 2022.06.25 2156 UTC
Wind: Variable at 3 MPH (3 KT):0
Visibility: 10 mile(s):0
Sky conditions: mostly clear
Temperature: 87.1 F (30.6 C)
Dew Point: 60.1 F (15.6 C)
Relative Humidity: 40%
Pressure (altimeter): 30.09 in. Hg (1018 hPa)
ob: KHPN 252156Z VRB03KT 10SM FEW060 31/16 A3009 RMK AO2 SLP181 T03060156
cycle: 22

Station Type Date Time Source
KHPN TAF 2022/06/25 20:39 UTC NOAA

TAF
AMD KHPN 251937Z 2520/2618 30009KT P6SM FEW060
FM252200 16007KT P6SM SCT060
FM260000 VRB03KT P6SM FEW060
FM261300 22006KT P6SM FEW060 SCT250
AMD NOT SKED

Example: see airport list